• Join FlightAware (Why Join?)
  • Login
  • US Flag 
06:21AM EDT


 

Airport Tracker/Info


-or-


 

Live Flight TrackerFlight Track Log ✈ EJA382 ✈ 23-Apr-2013 ✈ TXKF / BDA - KMIA

Flight Track Log - Related Links

Times and Time Zones

All times are in EDT time to prevent confusion due to time zone crossing. See the EJA382 flight status page for this flight to view local times or setup timezone preferences in your user account.

Time Position Orientation Groundspeed Altitude Reporting Facility
EDT Latitude Longitude Course Direction KTS MPH feet Rate Location/Type
10:18AM 32.3667 -64.6833 109° East 238 274 2,000  Level New York Oceanic (ODAPS)
10:22AM 32.1833 -65.0167 236° Southwest 407 468 17,300 3,000 Climbing New York Oceanic (ODAPS)
10:24AM 32.3305 -64.7782 248° West  Level Estimated
10:25AM 32.1414 -65.3448 238° Southwest  Level Estimated
10:26AM 32.0578 -65.3987 209° Southwest  Level FlightAware Approximate
10:26AM 32.1833 -65.0167 236° Southwest 407 468 25,800  Level New York Oceanic (ODAPS)
10:27AM 31.9742 -65.4524 209° Southwest  Level FlightAware Approximate
10:28AM 31.8132 -65.6703 236° Southwest 407 468 17,300  Level FlightAware Transoceanic
10:28AM 32.1833 -65.0167 236° Southwest 417 480 28,900  Climbing New York Oceanic (ODAPS)
10:29AM 31.7512 -65.7787 236° Southwest 407 468 17,300 -6,840 Descending FlightAware Transoceanic
10:30AM 31.6891 -65.8870 236° Southwest 407 468 17,300  Level FlightAware Transoceanic
10:31AM 31.6269 -65.9951 236° Southwest 407 468 17,300 4,200 Level FlightAware Transoceanic
10:32AM 31.5646 -66.1031 236° Southwest 407 468 25,800 4,200 Climbing FlightAware Transoceanic
10:33AM 31.5023 -66.2110 236° Southwest 407 468 25,800 1,500 Level FlightAware Transoceanic
10:34AM 31.4072 -66.3748 236° Southwest 417 480 28,900 1,500 Climbing FlightAware Transoceanic
10:35AM 31.3419 -66.4870 236° Southwest 417 480 28,900  Level FlightAware Transoceanic
10:36AM 31.2764 -66.5990 236° Southwest 417 480 28,900  Level FlightAware Transoceanic
10:37AM 31.2109 -66.7108 236° Southwest 417 480 28,900  Level FlightAware Transoceanic
10:38AM 31.1453 -66.8225 235° Southwest 417 480 28,900  Level FlightAware Transoceanic
10:39AM 31.0796 -66.9340 235° Southwest 417 480 28,900  Level FlightAware Transoceanic
10:40AM 31.0138 -67.0454 235° Southwest 417 480 28,900  Level FlightAware Transoceanic
10:41AM 30.9479 -67.1566 235° Southwest 417 480 28,900  Level FlightAware Transoceanic
10:42AM 30.8819 -67.2677 235° Southwest 417 480 28,900  Level FlightAware Transoceanic
10:43AM 30.8158 -67.3786 235° Southwest 417 480 28,900  Level FlightAware Transoceanic
10:44AM 30.7496 -67.4894 235° Southwest 417 480 28,900  Level FlightAware Transoceanic
10:45AM 30.6833 -67.6000 239° Southwest 417 480 28,900  Level FlightAware Transoceanic
10:46AM 30.6253 -67.7120 239° Southwest 417 480 28,900  Level FlightAware Transoceanic
10:47AM 30.5672 -67.8239 239° Southwest 417 480 28,900  Level FlightAware Transoceanic
10:48AM 30.5090 -67.9356 239° Southwest 417 480 28,900 4,380 Level FlightAware Transoceanic
10:48AM 30.6833 -67.6000 239° Southwest 386 444 34,000  Climbing New York Oceanic (ODAPS)
10:49AM 30.4506 -68.0472 239° Southwest 417 480 28,900 -2,760 Descending FlightAware Transoceanic
10:50AM 30.3922 -68.1587 239° Southwest 417 480 28,900  Level FlightAware Transoceanic
10:51AM 30.3337 -68.2700 239° Southwest 417 480 28,900  Level FlightAware Transoceanic
10:52AM 30.2751 -68.3812 239° Southwest 417 480 28,900  Level FlightAware Transoceanic
10:53AM 30.2164 -68.4922 239° Southwest 417 480 28,900 2,520 Level FlightAware Transoceanic
10:54AM 30.2311 -68.4645 239° Southwest 386 444 34,000 2,520 Climbing FlightAware Transoceanic
10:55AM 30.1742 -68.5720 238° Southwest 386 444 34,000  Level FlightAware Transoceanic
10:56AM 30.1172 -68.6794 238° Southwest 386 444 34,000  Level FlightAware Transoceanic
10:57AM 30.0601 -68.7866 238° Southwest 386 444 34,000  Level FlightAware Transoceanic
10:58AM 30.0029 -68.8937 238° Southwest 386 444 34,000  Level FlightAware Transoceanic
10:59AM 29.9456 -69.0007 238° Southwest 386 444 34,000  Level FlightAware Transoceanic
11:00AM 29.8883 -69.1076 238° Southwest 386 444 34,000  Level FlightAware Transoceanic
11:01AM 29.8308 -69.2144 238° Southwest 386 444 34,000  Level FlightAware Transoceanic
11:02AM 29.7733 -69.3210 238° Southwest 386 444 34,000  Level FlightAware Transoceanic
11:03AM 29.7157 -69.4275 238° Southwest 386 444 34,000  Level FlightAware Transoceanic
11:04AM 29.6580 -69.5339 238° Southwest 386 444 34,000  Level FlightAware Transoceanic
11:05AM 29.6002 -69.6402 238° Southwest 386 444 34,000  Level FlightAware Transoceanic
11:06AM 29.5423 -69.7463 238° Southwest 386 444 34,000  Level FlightAware Transoceanic
11:07AM 29.4844 -69.8523 238° Southwest 386 444 34,000  Level FlightAware Transoceanic
11:08AM 29.4263 -69.9582 238° Southwest 386 444 34,000  Level FlightAware Transoceanic
11:09AM 29.3682 -70.0640 238° Southwest 386 444 34,000  Level FlightAware Transoceanic
11:10AM 29.3100 -70.1697 238° Southwest 386 444 34,000  Level FlightAware Transoceanic
11:11AM 29.2517 -70.2752 238° Southwest 386 444 34,000  Level FlightAware Transoceanic
11:12AM 29.1933 -70.3806 238° Southwest 386 444 34,000  Level FlightAware Transoceanic
11:13AM 29.1349 -70.4859 238° Southwest 386 444 34,000  Level FlightAware Transoceanic
11:14AM 29.0763 -70.5911 237° Southwest 386 444 34,000  Level FlightAware Transoceanic
11:15AM 29.0177 -70.6962 237° Southwest 386 444 34,000  Level FlightAware Transoceanic
11:16AM 28.9590 -70.8011 237° Southwest 386 444 34,000  Level FlightAware Transoceanic
11:17AM 28.9002 -70.9059 237° Southwest 386 444 34,000  Level FlightAware Transoceanic
11:18AM 28.8414 -71.0106 237° Southwest 386 444 34,000  Level FlightAware Transoceanic
11:19AM 28.7824 -71.1152 237° Southwest 386 444 34,000  Level FlightAware Transoceanic
11:20AM 28.7234 -71.2197 237° Southwest 386 444 34,000  Level FlightAware Transoceanic
11:21AM 28.6643 -71.3240 237° Southwest 386 444 34,000  Level FlightAware Transoceanic
11:22AM 28.6051 -71.4283 237° Southwest 386 444 34,000  Level FlightAware Transoceanic
11:23AM 28.5459 -71.5324 237° Southwest 386 444 34,000 2,040 Level FlightAware Transoceanic
11:23AM 28.9000 -70.9833 237° Southwest 411 473 38,000  Climbing New York Oceanic (ODAPS)
11:24AM 28.4865 -71.6364 237° Southwest 386 444 34,000 -3,780 Descending FlightAware Transoceanic
11:25AM 28.4271 -71.7402 237° Southwest 386 444 34,000  Level FlightAware Transoceanic
11:26AM 28.3676 -71.8440 237° Southwest 386 444 34,000  Level FlightAware Transoceanic
11:27AM 28.3080 -71.9476 237° Southwest 386 444 34,000  Level FlightAware Transoceanic
11:28AM 28.2484 -72.0512 237° Southwest 386 444 34,000  Level FlightAware Transoceanic
11:29AM 28.1886 -72.1546 237° Southwest 386 444 34,000 1,980 Level FlightAware Transoceanic
11:30AM 28.2690 -72.0666 236° Southwest 411 473 38,000 1,980 Climbing FlightAware Transoceanic
11:31AM 28.2054 -72.1742 236° Southwest 411 473 38,000  Level FlightAware Transoceanic
11:32AM 28.1417 -72.2817 236° Southwest 411 473 38,000  Level FlightAware Transoceanic
11:33AM 28.0780 -72.3890 236° Southwest 411 473 38,000  Level FlightAware Transoceanic
11:34AM 28.0142 -72.4963 236° Southwest 411 473 38,000  Level FlightAware Transoceanic
11:35AM 27.9503 -72.6034 236° Southwest 411 473 38,000  Level FlightAware Transoceanic
11:36AM 27.8863 -72.7104 236° Southwest 411 473 38,000  Level FlightAware Transoceanic
11:37AM 27.8222 -72.8172 236° Southwest 411 473 38,000  Level FlightAware Transoceanic
11:38AM 27.7580 -72.9239 236° Southwest 411 473 38,000  Level FlightAware Transoceanic
11:39AM 27.6938 -73.0305 236° Southwest 411 473 38,000  Level FlightAware Transoceanic
11:40AM 27.6295 -73.1370 236° Southwest 411 473 38,000  Level FlightAware Transoceanic
11:41AM 27.5651 -73.2433 236° Southwest 411 473 38,000  Level FlightAware Transoceanic
11:42AM 27.5006 -73.3496 236° Southwest 411 473 38,000  Level FlightAware Transoceanic
11:43AM 27.4360 -73.4557 236° Southwest 411 473 38,000  Level FlightAware Transoceanic
11:44AM 27.3714 -73.5616 235° Southwest 411 473 38,000  Level FlightAware Transoceanic
11:45AM 27.3067 -73.6675 235° Southwest 411 473 38,000  Level FlightAware Transoceanic
11:46AM 27.2419 -73.7732 235° Southwest 411 473 38,000  Level FlightAware Transoceanic
11:47AM 27.1770 -73.8788 235° Southwest 411 473 38,000  Level FlightAware Transoceanic
11:48AM 27.1120 -73.9843 235° Southwest 411 473 38,000  Level FlightAware Transoceanic
11:49AM 27.0470 -74.0897 235° Southwest 411 473 38,000  Level FlightAware Transoceanic
11:50AM 26.9819 -74.1949 235° Southwest 411 473 38,000  Level FlightAware Transoceanic
11:51AM 26.9167 -74.3000 237° Southwest 411 473 38,000  Level FlightAware Transoceanic
11:52AM 26.8609 -74.3976 237° Southwest 411 473 38,000  Level FlightAware Transoceanic
11:53AM 26.8051 -74.4951 237° Southwest 411 473 38,000 1,860 Level FlightAware Transoceanic
11:53AM 26.9728 -74.2058 237° Southwest 415 478 40,000  Climbing Miami Center
11:54AM 26.7492 -74.5925 237° Southwest 411 473 38,000  Descending FlightAware Transoceanic
11:54AM 26.9078 -74.3050 234° Southwest 410 472 40,000  Climbing Miami Center
11:55AM 26.6932 -74.6898 237° Southwest 411 473 38,000  Descending FlightAware Transoceanic
11:55AM 26.8533 -74.4133 241° Southwest 410 472 40,000  Climbing Miami Center
11:56AM 26.6372 -74.7870 237° Southwest 411 473 38,000  Descending FlightAware Transoceanic
11:56AM 26.8408 -74.5417 264° West 399 459 40,000  Climbing Miami Center
11:57AM 26.5811 -74.8841 237° Southwest 411 473 38,000  Descending FlightAware Transoceanic
11:57AM 26.8197 -74.6633 259° West 405 466 40,000 1,860 Climbing Miami Center
11:58AM 26.8133 -74.7914 267° West 405 466 40,000  Level Miami Center
11:59AM 26.7772 -74.9061 251° West 407 468 40,000  Level Miami Center
12:00PM 26.7264 -75.0161 243° Southwest 394 453 40,000  Level Miami Center
12:01PM 26.6861 -75.1308 249° West 399 459 40,000  Level Miami Center
12:02PM 26.6417 -75.2453 247° West 399 459 40,000  Level Miami Center
12:03PM 26.5864 -75.3508 240° Southwest 399 459 40,000  Level Miami Center
12:04PM 26.5414 -75.4697 247° West 406 467 40,000  Level Miami Center
12:05PM 26.5050 -75.5933 252° West 411 473 40,000  Level Miami Center
12:06PM 26.4494 -75.7028 240° Southwest 411 473 40,000  Level Miami Center
12:07PM 26.4003 -75.8147 244° Southwest 406 467 40,000  Level Miami Center
12:08PM 26.3572 -75.9311 248° West 400 460 40,000  Level Miami Center
12:09PM 26.3181 -76.0194 244° Southwest 400 460 40,000  Level Miami Center
12:10PM 26.2644 -76.1381 243° Southwest 400 460 40,000  Level Miami Center
12:11PM 26.2189 -76.2564 247° West 406 467 40,000  Level Miami Center
12:12PM 26.1692 -76.3656 243° Southwest 411 473 40,000  Level Miami Center
12:13PM 26.1214 -76.4839 246° West 411 473 40,000  Level Miami Center
12:14PM 26.0717 -76.5950 244° Southwest 404 465 40,000  Level Miami Center
12:15PM 26.0236 -76.7108 245° Southwest 404 465 40,000  Level Miami Center
12:16PM 25.9778 -76.8242 246° West 404 465 40,000  Level Miami Center
12:17PM 25.9319 -76.9328 245° Southwest 404 465 40,000  Level Miami Center
12:18PM 25.8858 -77.0389 244° Southwest 398 458 40,000  Level Miami Center
12:19PM 25.8375 -77.1475 244° Southwest 398 458 40,000  Level Miami Center
12:20PM 25.7892 -77.2581 244° Southwest 398 458 40,000  Level Miami Center
12:21PM 25.7428 -77.3686 245° Southwest 398 458 40,000  Level Miami Center
12:22PM 25.6903 -77.4906 244° Southwest 405 466 40,000  Level Miami Center
12:23PM 25.6417 -77.6011 244° Southwest 405 466 40,000  Level Miami Center
12:24PM 25.5950 -77.7114 245° Southwest 400 460 40,000  Level Miami Center
12:25PM 25.5442 -77.8239 243° Southwest 400 460 40,000  Level Miami Center
12:26PM 25.4975 -77.9294 244° Southwest 400 460 40,000 -840 Level Miami Center
12:27PM 25.4528 -78.0347 245° Southwest 395 455 38,400 -1,740 Descending Miami Center
12:28PM 25.4058 -78.1447 245° Southwest 395 455 36,600 -1,800 Descending Miami Center
12:29PM 25.3631 -78.2503 246° West 389 448 34,800 -1,800 Descending Miami Center
12:30PM 25.3664 -78.3606 272° West 367 422 33,000 -1,800 Descending Miami Center
12:31PM 25.3608 -78.4847 267° West 384 442 31,200 -1,800 Descending Miami Center
12:32PM 25.3678 -78.6092 274° West 391 450 29,400 -1,680 Descending Miami Center
12:33PM 25.3683 -78.7356 270° West 411 473 27,900 -1,800 Descending Miami Center
12:34PM 25.3772 -78.8575 275° West 411 473 25,800 -2,040 Descending Miami Center
12:35PM 25.3775 -78.9703 270° West 411 473 23,900 -1,980 Descending Miami Center
12:36PM 25.3781 -79.0922 270° West 405 466 21,900 -1,920 Descending Miami Center
12:37PM 25.3825 -79.2050 273° West 386 444 20,100 -1,800 Descending Miami Center
12:38PM 25.3847 -79.3153 271° West 373 429 18,400 -1,800 Descending Miami Center
12:39PM 25.3872 -79.4236 271° West 363 418 16,600 -1,800 Descending Miami Center
12:39PM 25.3878 -79.5064 270° West 347 399 15,400 -1,740 Descending Miami Center
12:40PM 25.3875 -79.5292 269° West 358 412 14,900 -1,620 Descending Miami Center
12:41PM 25.3917 -79.6328 273° West 347 399 13,300 -1,920 Descending Miami Center
12:41PM 25.3908 -79.6742 269° West 338 389 12,500 -2,400 Descending Miami Center
12:42PM 25.4083 -79.7553 283° West 297 342 10,400 -2,100 Descending Miami Center
12:43PM 25.4447 -79.8089 307° West 308 354 8,900 -1,440 Descending Miami Center
12:44PM 25.4894 -79.8767 306° West 290 334 7,900 -720 Descending Miami Center
12:44PM 25.5094 -79.9142 301° West 281 323 8,000  Climbing Miami Center
12:45PM 25.5358 -79.9469 312° West 285 328 7,900  Descending Miami Center
12:45PM 25.5561 -79.9819 303° West 280 322 8,000  Climbing Miami Center
12:46PM 25.5825 -80.0172 310° West 285 328 7,900  Descending Miami Center
12:46PM 25.6025 -80.0547 301° West 281 323 8,000  Climbing Miami Center
12:47PM 25.6292 -80.0853 314° West 285 328 7,900  Descending Miami Center
12:47PM 25.6492 -80.1206 302° West 279 321 8,000  Climbing Miami Center
12:48PM 25.6692 -80.1603 299° West 285 328 7,900  Descending Miami Center
12:48PM 25.6764 -80.2064 280° West 280 322 8,000  Climbing Miami Center
12:49PM 25.6903 -80.2436 292° West 279 321 7,900 -1,200 Descending Miami Center
12:49PM 25.6994 -80.2969 281° West 262 302 6,700 -2,340 Descending Miami Center
12:50PM 25.7039 -80.3756 274° West 260 299 4,300 -1,920 Descending Miami Center
12:51PM 25.7019 -80.4492 268° West 255 293 3,000 -660 Descending Miami Center
12:52PM 25.7433 -80.4689 337° Northwest 178 205 3,000 -300 Level Miami Center
12:53PM 25.7753 -80.4400 39° Northeast 175 201 2,500 -780 Descending Miami Center
12:54PM 25.7975 -80.3922 63° Northeast 166 191 1,600 -840 Descending Miami Center
12:55PM 25.7986 -80.3483 88° East 126 145 800 -720 Descending Miami Center
12:56PM 25.8014 -80.3092 85° East 123 142 200 -600 Descending Miami Center
12:58PM 25.7954 -80.2901 77° East  Level Estimated
01:05PM 25.7954 -80.2901 77° East  Level Estimated